sensor_id;sensor_type;location;lat;lon;timestamp;pressure;altitude;pressure_sealevel;temperature;humidity
18509;BME280;9383;50.928;12.116;2023-12-07T00:00:44;98930.50;;;0.96;100.00
18509;BME280;9383;50.928;12.116;2023-12-07T00:03:10;98983.69;;;1.20;100.00
18509;BME280;9383;50.928;12.116;2023-12-07T00:05:36;98965.41;;;1.20;100.00
18509;BME280;9383;50.928;12.116;2023-12-07T00:08:02;98919.19;;;0.87;100.00
18509;BME280;9383;50.928;12.116;2023-12-07T00:10:28;98903.47;;;0.77;100.00
18509;BME280;9383;50.928;12.116;2023-12-07T00:13:00;98970.63;;;1.19;100.00
18509;BME280;9383;50.928;12.116;2023-12-07T00:15:26;98950.53;;;1.01;100.00
18509;BME280;9383;50.928;12.116;2023-12-07T00:17:52;98853.75;;;0.40;100.00
18509;BME280;9383;50.928;12.116;2023-12-07T00:20:19;98960.16;;;1.09;100.00
18509;BME280;9383;50.928;12.116;2023-12-07T00:22:45;98976.69;;;1.11;100.00
18509;BME280;9383;50.928;12.116;2023-12-07T00:25:11;98974.09;;;1.11;100.00
18509;BME280;9383;50.928;12.116;2023-12-07T00:27:38;98918.28;;;0.83;100.00
18509;BME280;9383;50.928;12.116;2023-12-07T00:30:05;98980.19;;;1.18;100.00
18509;BME280;9383;50.928;12.116;2023-12-07T00:32:31;98958.38;;;1.01;100.00
18509;BME280;9383;50.928;12.116;2023-12-07T00:34:58;98988.03;;;1.18;100.00
18509;BME280;9383;50.928;12.116;2023-12-07T00:37:24;98985.44;;;1.18;100.00
18509;BME280;9383;50.928;12.116;2023-12-07T00:39:50;98924.38;;;0.79;100.00
18509;BME280;9383;50.928;12.116;2023-12-07T00:42:16;98813.66;;;0.15;100.00
18509;BME280;9383;50.928;12.116;2023-12-07T00:44:43;98982.81;;;1.18;100.00
18509;BME280;9383;50.928;12.116;2023-12-07T00:47:09;98919.13;;;0.76;100.00
18509;BME280;9383;50.928;12.116;2023-12-07T00:49:39;98991.53;;;1.20;100.00
18509;BME280;9383;50.928;12.116;2023-12-07T00:52:08;98994.16;;;1.22;100.00
18509;BME280;9383;50.928;12.116;2023-12-07T00:54:34;98994.16;;;1.22;100.00
18509;BME280;9383;50.928;12.116;2023-12-07T00:57:00;98979.28;;;1.07;100.00
18509;BME280;9383;50.928;12.116;2023-12-07T00:59:27;98964.44;;;0.96;100.00
18509;BME280;9383;50.928;12.116;2023-12-07T01:01:53;98956.63;;;0.96;100.00
18509;BME280;9383;50.928;12.116;2023-12-07T01:04:21;99008.94;;;1.23;100.00
18509;BME280;9383;50.928;12.116;2023-12-07T01:06:48;99010.69;;;1.22;100.00
18509;BME280;9383;50.928;12.116;2023-12-07T01:09:14;99015.03;;;1.23;100.00
18509;BME280;9383;50.928;12.116;2023-12-07T01:11:40;98977.53;;;1.04;100.00
18509;BME280;9383;50.928;12.116;2023-12-07T01:14:06;99004.56;;;1.17;100.00
18509;BME280;9383;50.928;12.116;2023-12-07T01:16:32;99019.38;;;1.24;100.00
18509;BME280;9383;50.928;12.116;2023-12-07T01:18:58;99004.56;;;1.20;100.00
18509;BME280;9383;50.928;12.116;2023-12-07T01:21:25;99020.28;;;1.26;100.00
18509;BME280;9383;50.928;12.116;2023-12-07T01:23:51;99019.41;;;1.26;100.00
18509;BME280;9383;50.928;12.116;2023-12-07T01:26:17;99025.50;;;1.26;100.00
18509;BME280;9383;50.928;12.116;2023-12-07T01:28:43;98997.56;;;1.07;100.00
18509;BME280;9383;50.928;12.116;2023-12-07T01:31:09;98984.47;;;1.01;100.00
18509;BME280;9383;50.928;12.116;2023-12-07T01:33:35;99020.25;;;1.22;100.00
18509;BME280;9383;50.928;12.116;2023-12-07T01:36:01;99003.69;;;1.17;100.00
18509;BME280;9383;50.928;12.116;2023-12-07T01:38:28;99027.25;;;1.28;100.00
18509;BME280;9383;50.928;12.116;2023-12-07T01:40:54;99033.34;;;1.28;100.00
18509;BME280;9383;50.928;12.116;2023-12-07T01:43:22;99040.28;;;1.29;100.00
18509;BME280;9383;50.928;12.116;2023-12-07T01:45:52;99014.16;;;1.15;100.00
18509;BME280;9383;50.928;12.116;2023-12-07T01:48:21;99037.69;;;1.23;100.00
18509;BME280;9383;50.928;12.116;2023-12-07T01:50:49;99041.19;;;1.30;100.00
18509;BME280;9383;50.928;12.116;2023-12-07T01:53:16;99050.75;;;1.29;100.00
18509;BME280;9383;50.928;12.116;2023-12-07T01:55:42;99045.53;;;1.31;100.00
18509;BME280;9383;50.928;12.116;2023-12-07T01:58:09;99046.38;;;1.23;100.00
18509;BME280;9383;50.928;12.116;2023-12-07T02:00:38;99054.25;;;1.30;100.00
18509;BME280;9383;50.928;12.116;2023-12-07T02:03:05;99018.47;;;1.08;100.00
18509;BME280;9383;50.928;12.116;2023-12-07T02:05:32;99066.44;;;1.31;100.00
18509;BME280;9383;50.928;12.116;2023-12-07T02:07:59;99055.13;;;1.29;100.00
18509;BME280;9383;50.928;12.116;2023-12-07T02:10:25;99067.28;;;1.26;100.00
18509;BME280;9383;50.928;12.116;2023-12-07T02:12:52;99065.56;;;1.29;100.00
18509;BME280;9383;50.928;12.116;2023-12-07T02:15:19;99075.13;;;1.28;100.00
18509;BME280;9383;50.928;12.116;2023-12-07T02:18:06;99072.53;;;1.30;100.00
18509;BME280;9383;50.928;12.116;2023-12-07T02:21:08;99061.16;;;1.18;100.00
18509;BME280;9383;50.928;12.116;2023-12-07T02:23:41;99007.94;;;0.91;100.00
18509;BME280;9383;50.928;12.116;2023-12-07T02:26:10;98977.41;;;0.76;100.00
18509;BME280;9383;50.928;12.116;2023-12-07T02:28:36;99061.16;;;1.24;100.00
18509;BME280;9383;50.928;12.116;2023-12-07T02:31:02;99074.25;;;1.31;100.00
18509;BME280;9383;50.928;12.116;2023-12-07T02:33:29;99084.72;;;1.31;100.00
18509;BME280;9383;50.928;12.116;2023-12-07T02:35:55;98962.56;;;0.64;100.00
18509;BME280;9383;50.928;12.116;2023-12-07T02:38:26;99096.00;;;1.31;100.00
18509;BME280;9383;50.928;12.116;2023-12-07T02:40:55;99037.53;;;0.96;100.00
18509;BME280;9383;50.928;12.116;2023-12-07T02:43:23;99070.72;;;1.19;100.00
18509;BME280;9383;50.928;12.116;2023-12-07T02:45:49;99091.63;;;1.25;100.00
18509;BME280;9383;50.928;12.116;2023-12-07T02:48:15;99055.88;;;1.06;100.00
18509;BME280;9383;50.928;12.116;2023-12-07T02:50:43;98960.72;;;0.48;100.00
18509;BME280;9383;50.928;12.116;2023-12-07T02:53:09;99089.06;;;1.30;100.00
18509;BME280;9383;50.928;12.116;2023-12-07T02:55:36;99092.56;;;1.31;100.00
18509;BME280;9383;50.928;12.116;2023-12-07T02:58:03;98999.13;;;0.72;100.00
18509;BME280;9383;50.928;12.116;2023-12-07T03:00:30;99096.88;;;1.30;100.00
18509;BME280;9383;50.928;12.116;2023-12-07T03:02:56;99100.38;;;1.31;100.00
18509;BME280;9383;50.928;12.116;2023-12-07T03:05:23;99094.28;;;1.32;100.00
18509;BME280;9383;50.928;12.116;2023-12-07T03:07:49;99089.94;;;1.31;100.00
18509;BME280;9383;50.928;12.116;2023-12-07T03:10:16;99094.28;;;1.30;100.00
18509;BME280;9383;50.928;12.116;2023-12-07T03:12:42;99041.00;;;0.95;100.00
18509;BME280;9383;50.928;12.116;2023-12-07T03:15:08;99099.50;;;1.32;100.00
18509;BME280;9383;50.928;12.116;2023-12-07T03:17:36;99109.09;;;1.33;100.00
18509;BME280;9383;50.928;12.116;2023-12-07T03:20:03;99101.28;;;1.34;100.00
18509;BME280;9383;50.928;12.116;2023-12-07T03:22:31;99105.63;;;1.34;100.00
18509;BME280;9383;50.928;12.116;2023-12-07T03:24:58;99103.00;;;1.31;100.00
18509;BME280;9383;50.928;12.116;2023-12-07T03:27:24;98928.34;;;0.15;100.00
18509;BME280;9383;50.928;12.116;2023-12-07T03:29:50;99097.75;;;1.28;100.00
18509;BME280;9383;50.928;12.116;2023-12-07T03:32:17;99104.75;;;1.33;100.00
18509;BME280;9383;50.928;12.116;2023-12-07T03:34:43;99092.53;;;1.26;100.00
18509;BME280;9383;50.928;12.116;2023-12-07T03:37:09;98984.25;;;0.57;100.00
18509;BME280;9383;50.928;12.116;2023-12-07T03:39:35;99068.94;;;1.12;100.00
18509;BME280;9383;50.928;12.116;2023-12-07T03:42:01;99035.75;;;0.91;100.00
18509;BME280;9383;50.928;12.116;2023-12-07T03:44:27;99024.38;;;0.76;100.00
18509;BME280;9383;50.928;12.116;2023-12-07T03:46:54;99040.06;;;0.84;100.00
18509;BME280;9383;50.928;12.116;2023-12-07T03:49:20;99068.91;;;1.03;100.00
18509;BME280;9383;50.928;12.116;2023-12-07T03:51:47;99077.63;;;1.11;100.00
18509;BME280;9383;50.928;12.116;2023-12-07T03:54:13;99110.78;;;1.23;100.00
18509;BME280;9383;50.928;12.116;2023-12-07T03:56:39;99088.94;;;1.10;100.00
18509;BME280;9383;50.928;12.116;2023-12-07T03:59:06;99067.97;;;0.94;100.00
18509;BME280;9383;50.928;12.116;2023-12-07T04:01:32;99117.75;;;1.22;100.00
18509;BME280;9383;50.928;12.116;2023-12-07T04:03:58;99098.53;;;1.09;100.00
18509;BME280;9383;50.928;12.116;2023-12-07T04:06:26;99071.47;;;0.95;100.00
18509;BME280;9383;50.928;12.116;2023-12-07T04:08:53;99124.75;;;1.28;100.00
18509;BME280;9383;50.928;12.116;2023-12-07T04:11:19;99058.34;;;0.81;100.00
18509;BME280;9383;50.928;12.116;2023-12-07T04:13:46;99092.41;;;1.04;100.00
18509;BME280;9383;50.928;12.116;2023-12-07T04:16:12;99067.91;;;0.82;100.00
18509;BME280;9383;50.928;12.116;2023-12-07T04:18:38;98963.09;;;0.12;100.00
18509;BME280;9383;50.928;12.116;2023-12-07T04:21:04;99070.53;;;0.88;100.00
18509;BME280;9383;50.928;12.116;2023-12-07T04:23:33;99110.69;;;1.09;100.00
18509;BME280;9383;50.928;12.116;2023-12-07T04:25:59;99007.63;;;0.43;100.00
18509;BME280;9383;50.928;12.116;2023-12-07T04:28:26;99138.63;;;1.19;100.00
18509;BME280;9383;50.928;12.116;2023-12-07T04:30:52;99134.25;;;1.15;100.00
18509;BME280;9383;50.928;12.116;2023-12-07T04:33:18;99098.50;;;1.02;100.00
18509;BME280;9383;50.928;12.116;2023-12-07T04:35:44;99112.44;;;1.07;100.00
18509;BME280;9383;50.928;12.116;2023-12-07T04:38:10;99080.06;;;0.77;100.00
18509;BME280;9383;50.928;12.116;2023-12-07T04:40:36;99039.09;;;0.63;100.00
18509;BME280;9383;50.928;12.116;2023-12-07T04:43:03;99112.47;;;1.08;100.00
18509;BME280;9383;50.928;12.116;2023-12-07T04:45:29;99067.84;;;0.76;100.00
18509;BME280;9383;50.928;12.116;2023-12-07T04:47:55;99153.47;;;1.26;100.00
18509;BME280;9383;50.928;12.116;2023-12-07T04:50:23;99153.47;;;1.26;100.00
18509;BME280;9383;50.928;12.116;2023-12-07T04:52:49;99151.72;;;1.27;100.00
18509;BME280;9383;50.928;12.116;2023-12-07T04:55:16;99104.53;;;0.96;100.00
18509;BME280;9383;50.928;12.116;2023-12-07T04:57:42;99058.25;;;0.72;100.00
18509;BME280;9383;50.928;12.116;2023-12-07T05:00:09;99158.69;;;1.28;100.00
18509;BME280;9383;50.928;12.116;2023-12-07T05:02:36;99154.31;;;1.22;100.00
18509;BME280;9383;50.928;12.116;2023-12-07T05:05:02;99149.97;;;1.23;100.00
18509;BME280;9383;50.928;12.116;2023-12-07T05:07:29;99164.81;;;1.29;100.00
18509;BME280;9383;50.928;12.116;2023-12-07T05:09:55;99104.53;;;0.96;100.00
18509;BME280;9383;50.928;12.116;2023-12-07T05:12:21;99150.81;;;1.17;100.00
18509;BME280;9383;50.928;12.116;2023-12-07T05:14:47;98944.69;;;-0.08;100.00
18509;BME280;9383;50.928;12.116;2023-12-07T05:17:13;99158.66;;;1.23;100.00
18509;BME280;9383;50.928;12.116;2023-12-07T05:19:40;99158.66;;;1.22;100.00
18509;BME280;9383;50.928;12.116;2023-12-07T05:22:07;99154.28;;;1.16;100.00
18509;BME280;9383;50.928;12.116;2023-12-07T05:24:35;99149.06;;;1.16;100.00
18509;BME280;9383;50.928;12.116;2023-12-07T05:27:01;99169.97;;;1.22;100.00
18509;BME280;9383;50.928;12.116;2023-12-07T05:29:29;99135.03;;;1.02;100.00
18509;BME280;9383;50.928;12.116;2023-12-07T05:31:55;99169.97;;;1.22;100.00
18509;BME280;9383;50.928;12.116;2023-12-07T05:34:21;99139.38;;;1.01;100.00
18509;BME280;9383;50.928;12.116;2023-12-07T05:36:48;99168.19;;;1.15;100.00
18509;BME280;9383;50.928;12.116;2023-12-07T05:39:15;99075.63;;;0.66;100.00
18509;BME280;9383;50.928;12.116;2023-12-07T05:41:43;99181.25;;;1.17;100.00
18509;BME280;9383;50.928;12.116;2023-12-07T05:44:09;99127.94;;;0.85;100.00
18509;BME280;9383;50.928;12.116;2023-12-07T05:46:36;99178.69;;;1.24;100.00
18509;BME280;9383;50.928;12.116;2023-12-07T05:49:02;99091.28;;;0.66;100.00
18509;BME280;9383;50.928;12.116;2023-12-07T05:51:29;99189.13;;;1.24;100.00
18509;BME280;9383;50.928;12.116;2023-12-07T05:53:56;99146.34;;;1.05;100.00
18509;BME280;9383;50.928;12.116;2023-12-07T05:56:23;99189.13;;;1.24;100.00
18509;BME280;9383;50.928;12.116;2023-12-07T05:58:50;99149.84;;;1.06;100.00
18509;BME280;9383;50.928;12.116;2023-12-07T06:01:17;99180.44;;;1.21;100.00
18509;BME280;9383;50.928;12.116;2023-12-07T06:03:44;99185.66;;;1.24;100.00
18509;BME280;9383;50.928;12.116;2023-12-07T06:06:13;99194.34;;;1.24;100.00
18509;BME280;9383;50.928;12.116;2023-12-07T06:08:40;99188.25;;;1.21;100.00
18509;BME280;9383;50.928;12.116;2023-12-07T06:11:06;99160.31;;;1.09;100.00
18509;BME280;9383;50.928;12.116;2023-12-07T06:13:34;99183.03;;;1.25;100.00
18509;BME280;9383;50.928;12.116;2023-12-07T06:16:01;99101.75;;;0.76;100.00
18509;BME280;9383;50.928;12.116;2023-12-07T06:18:29;99184.78;;;1.23;100.00
18509;BME280;9383;50.928;12.116;2023-12-07T06:20:55;99055.34;;;0.30;100.00
18509;BME280;9383;50.928;12.116;2023-12-07T06:23:21;99152.41;;;1.00;100.00
18509;BME280;9383;50.928;12.116;2023-12-07T06:25:47;99174.25;;;1.12;100.00
18509;BME280;9383;50.928;12.116;2023-12-07T06:28:14;99168.09;;;1.04;100.00
18509;BME280;9383;50.928;12.116;2023-12-07T06:30:40;99199.56;;;1.24;100.00
18509;BME280;9383;50.928;12.116;2023-12-07T06:33:07;99208.28;;;1.25;100.00
18509;BME280;9383;50.928;12.116;2023-12-07T06:35:33;99204.81;;;1.24;100.00
18509;BME280;9383;50.928;12.116;2023-12-07T06:37:59;99203.06;;;1.23;100.00
18509;BME280;9383;50.928;12.116;2023-12-07T06:40:31;99204.81;;;1.24;100.00
18509;BME280;9383;50.928;12.116;2023-12-07T06:42:58;99206.56;;;1.24;100.00
18509;BME280;9383;50.928;12.116;2023-12-07T06:45:25;99156.66;;;0.87;100.00
18509;BME280;9383;50.928;12.116;2023-12-07T06:47:53;99166.31;;;0.97;100.00
18509;BME280;9383;50.928;12.116;2023-12-07T06:50:19;99211.72;;;1.18;100.00
18509;BME280;9383;50.928;12.116;2023-12-07T06:52:48;99210.03;;;1.24;100.00
18509;BME280;9383;50.928;12.116;2023-12-07T06:55:18;99202.16;;;1.18;100.00
18509;BME280;9383;50.928;12.116;2023-12-07T06:57:45;99208.28;;;1.23;100.00
18509;BME280;9383;50.928;12.116;2023-12-07T07:00:15;99090.28;;;0.50;100.00
18509;BME280;9383;50.928;12.116;2023-12-07T07:02:42;99195.97;;;1.07;100.00
18509;BME280;9383;50.928;12.116;2023-12-07T07:05:10;99146.16;;;0.77;100.00
18509;BME280;9383;50.928;12.116;2023-12-07T07:07:38;99213.50;;;1.23;100.00
18509;BME280;9383;50.928;12.116;2023-12-07T07:10:07;99108.56;;;0.53;100.00
18509;BME280;9383;50.928;12.116;2023-12-07T07:12:36;99221.34;;;1.23;100.00
18509;BME280;9383;50.928;12.116;2023-12-07T07:15:02;99139.16;;;0.72;100.00
18509;BME280;9383;50.928;12.116;2023-12-07T07:17:29;99115.47;;;0.48;100.00
18509;BME280;9383;50.928;12.116;2023-12-07T07:19:55;99219.59;;;1.24;100.00
18509;BME280;9383;50.928;12.116;2023-12-07T07:22:22;99227.41;;;1.22;100.00
18509;BME280;9383;50.928;12.116;2023-12-07T07:24:48;99201.19;;;1.04;100.00
18509;BME280;9383;50.928;12.116;2023-12-07T07:27:14;99209.91;;;1.09;100.00
18509;BME280;9383;50.928;12.116;2023-12-07T07:29:40;99225.63;;;1.17;100.00
18509;BME280;9383;50.928;12.116;2023-12-07T07:32:06;99198.47;;;0.93;100.00
18509;BME280;9383;50.928;12.116;2023-12-07T07:34:35;99238.72;;;1.21;100.00
18509;BME280;9383;50.928;12.116;2023-12-07T07:37:01;99238.72;;;1.21;100.00
18509;BME280;9383;50.928;12.116;2023-12-07T07:39:30;99216.91;;;1.11;100.00
18509;BME280;9383;50.928;12.116;2023-12-07T07:41:56;99157.38;;;0.65;100.00
18509;BME280;9383;50.928;12.116;2023-12-07T07:44:23;99242.22;;;1.20;100.00
18509;BME280;9383;50.928;12.116;2023-12-07T07:46:50;99243.06;;;1.16;100.00
18509;BME280;9383;50.928;12.116;2023-12-07T07:49:16;99241.28;;;1.10;100.00
18509;BME280;9383;50.928;12.116;2023-12-07T07:51:44;99236.03;;;1.12;100.00
18509;BME280;9383;50.928;12.116;2023-12-07T07:54:10;99242.22;;;1.20;100.00
18509;BME280;9383;50.928;12.116;2023-12-07T07:56:38;99171.28;;;0.69;100.00
18509;BME280;9383;50.928;12.116;2023-12-07T07:59:04;99241.31;;;1.15;100.00
18509;BME280;9383;50.928;12.116;2023-12-07T08:01:30;99224.63;;;1.01;100.00
18509;BME280;9383;50.928;12.116;2023-12-07T08:03:56;99248.22;;;1.13;100.00
18509;BME280;9383;50.928;12.116;2023-12-07T08:06:22;99183.59;;;0.81;100.00
18509;BME280;9383;50.928;12.116;2023-12-07T08:08:48;99176.59;;;0.77;100.00
18509;BME280;9383;50.928;12.116;2023-12-07T08:11:16;99239.59;;;1.17;100.00
18509;BME280;9383;50.928;12.116;2023-12-07T08:13:42;99221.19;;;1.03;100.00
18509;BME280;9383;50.928;12.116;2023-12-07T08:16:09;99250.91;;;1.19;100.00
18509;BME280;9383;50.928;12.116;2023-12-07T08:18:35;99252.69;;;1.25;100.00
18509;BME280;9383;50.928;12.116;2023-12-07T08:21:07;99250.09;;;1.26;100.00
18509;BME280;9383;50.928;12.116;2023-12-07T08:23:35;99212.47;;;1.01;100.00
18509;BME280;9383;50.928;12.116;2023-12-07T08:26:03;99266.63;;;1.27;100.00
18509;BME280;9383;50.928;12.116;2023-12-07T08:28:29;99269.25;;;1.27;100.00
18509;BME280;9383;50.928;12.116;2023-12-07T08:30:56;99271.84;;;1.27;100.00
18509;BME280;9383;50.928;12.116;2023-12-07T08:33:22;99274.50;;;1.29;100.00
18509;BME280;9383;50.928;12.116;2023-12-07T08:35:49;99277.97;;;1.29;100.00
18509;BME280;9383;50.928;12.116;2023-12-07T08:38:20;99231.56;;;0.98;100.00
18509;BME280;9383;50.928;12.116;2023-12-07T08:40:48;99273.63;;;1.31;100.00
18509;BME280;9383;50.928;12.116;2023-12-07T08:43:14;99274.50;;;1.32;100.00
18509;BME280;9383;50.928;12.116;2023-12-07T08:45:41;99281.50;;;1.34;100.00
18509;BME280;9383;50.928;12.116;2023-12-07T08:48:10;99291.97;;;1.34;100.00
18509;BME280;9383;50.928;12.116;2023-12-07T08:50:37;99152.09;;;0.59;100.00
18509;BME280;9383;50.928;12.116;2023-12-07T08:53:03;99289.34;;;1.36;100.00
18509;BME280;9383;50.928;12.116;2023-12-07T08:55:31;99163.41;;;0.61;100.00
18509;BME280;9383;50.928;12.116;2023-12-07T08:57:57;99284.13;;;1.37;100.00
18509;BME280;9383;50.928;12.116;2023-12-07T09:00:25;99282.41;;;1.39;100.00
18509;BME280;9383;50.928;12.116;2023-12-07T09:02:52;99282.41;;;1.39;100.00
18509;BME280;9383;50.928;12.116;2023-12-07T09:05:18;99286.78;;;1.42;100.00
18509;BME280;9383;50.928;12.116;2023-12-07T09:07:46;99296.38;;;1.43;100.00
18509;BME280;9383;50.928;12.116;2023-12-07T09:10:13;99278.03;;;1.37;100.00
18509;BME280;9383;50.928;12.116;2023-12-07T09:12:39;99284.13;;;1.39;100.00
18509;BME280;9383;50.928;12.116;2023-12-07T09:15:07;99231.69;;;1.11;100.00
18509;BME280;9383;50.928;12.116;2023-12-07T09:17:33;99225.59;;;1.10;100.00
18509;BME280;9383;50.928;12.116;2023-12-07T09:19:59;99275.44;;;1.42;100.00
18509;BME280;9383;50.928;12.116;2023-12-07T09:22:27;99148.66;;;0.63;100.00
18509;BME280;9383;50.928;12.116;2023-12-07T09:24:53;99277.22;;;1.44;100.00
18509;BME280;9383;50.928;12.116;2023-12-07T09:27:19;99110.22;;;0.44;100.00
18509;BME280;9383;50.928;12.116;2023-12-07T09:29:49;99292.09;;;1.54;100.00
18509;BME280;9383;50.928;12.116;2023-12-07T09:32:16;99278.13;;;1.49;100.00
18509;BME280;9383;50.928;12.116;2023-12-07T09:34:43;99287.75;;;1.57;100.00
18509;BME280;9383;50.928;12.116;2023-12-07T09:37:10;99278.16;;;1.52;100.00
18509;BME280;9383;50.928;12.116;2023-12-07T09:39:36;99301.72;;;1.60;100.00
18509;BME280;9383;50.928;12.116;2023-12-07T09:42:03;99255.38;;;1.36;100.00
18509;BME280;9383;50.928;12.116;2023-12-07T09:44:32;99156.59;;;0.77;100.00
18509;BME280;9383;50.928;12.116;2023-12-07T09:47:00;99289.56;;;1.65;100.00
18509;BME280;9383;50.928;12.116;2023-12-07T09:49:27;99292.19;;;1.68;100.00
18509;BME280;9383;50.928;12.116;2023-12-07T09:51:55;99290.44;;;1.71;100.00
18509;BME280;9383;50.928;12.116;2023-12-07T09:54:22;99295.72;;;1.74;100.00
18509;BME280;9383;50.928;12.116;2023-12-07T09:56:49;99296.59;;;1.76;100.00
18509;BME280;9383;50.928;12.116;2023-12-07T09:59:21;99092.91;;;0.50;100.00
18509;BME280;9383;50.928;12.116;2023-12-07T10:01:48;99275.59;;;1.60;100.00
18509;BME280;9383;50.928;12.116;2023-12-07T10:04:21;99290.47;;;1.72;100.00
18509;BME280;9383;50.928;12.116;2023-12-07T10:06:52;99280.03;;;1.72;100.00
18509;BME280;9383;50.928;12.116;2023-12-07T10:09:20;99140.13;;;0.86;100.00
18509;BME280;9383;50.928;12.116;2023-12-07T10:11:47;99252.03;;;1.52;100.00
18509;BME280;9383;50.928;12.116;2023-12-07T10:14:14;99227.56;;;1.41;100.00
18509;BME280;9383;50.928;12.116;2023-12-07T10:16:53;99222.38;;;1.47;100.00
18509;BME280;9383;50.928;12.116;2023-12-07T10:19:23;99288.84;;;1.90;100.00
18509;BME280;9383;50.928;12.116;2023-12-07T10:21:54;99244.28;;;1.65;100.00
18509;BME280;9383;50.928;12.116;2023-12-07T10:24:23;99259.16;;;1.78;100.00
18509;BME280;9383;50.928;12.116;2023-12-07T10:26:51;99252.16;;;1.74;100.00
18509;BME280;9383;50.928;12.116;2023-12-07T10:29:19;99284.53;;;2.00;100.00
18509;BME280;9383;50.928;12.116;2023-12-07T10:31:49;99168.28;;;1.31;100.00
18509;BME280;9383;50.928;12.116;2023-12-07T10:34:22;99251.34;;;1.85;100.00
18509;BME280;9383;50.928;12.116;2023-12-07T10:36:52;99226.88;;;1.73;100.00
18509;BME280;9383;50.928;12.116;2023-12-07T10:39:26;99232.13;;;1.75;100.00
18509;BME280;9383;50.928;12.116;2023-12-07T10:41:58;99277.59;;;2.08;100.00
18509;BME280;9383;50.928;12.116;2023-12-07T10:44:28;99270.66;;;2.13;100.00
18509;BME280;9383;50.928;12.116;2023-12-07T10:47:12;99272.41;;;2.14;100.00
18509;BME280;9383;50.928;12.116;2023-12-07T10:49:46;99270.66;;;2.10;100.00
18509;BME280;9383;50.928;12.116;2023-12-07T10:52:35;99275.91;;;2.18;100.00
18509;BME280;9383;50.928;12.116;2023-12-07T10:55:22;99249.72;;;2.05;100.00
18509;BME280;9383;50.928;12.116;2023-12-07T10:58:04;99185.06;;;1.70;100.00
18509;BME280;9383;50.928;12.116;2023-12-07T11:00:32;99149.25;;;1.49;100.00
18509;BME280;9383;50.928;12.116;2023-12-07T11:03:02;99247.13;;;2.13;100.00
18509;BME280;9383;50.928;12.116;2023-12-07T11:05:30;99114.34;;;1.39;100.00
18509;BME280;9383;50.928;12.116;2023-12-07T11:08:09;99163.31;;;1.76;100.00
18509;BME280;9383;50.928;12.116;2023-12-07T11:13:39;99241.94;;;2.24;100.00
18509;BME280;9383;50.928;12.116;2023-12-07T11:16:10;99182.56;;;2.06;100.00
18509;BME280;9383;50.928;12.116;2023-12-07T11:18:43;99184.31;;;2.07;100.00
18509;BME280;9383;50.928;12.116;2023-12-07T11:21:18;99193.97;;;2.16;100.00
18509;BME280;9383;50.928;12.116;2023-12-07T11:23:53;99235.06;;;2.57;100.00
18509;BME280;9383;50.928;12.116;2023-12-07T11:26:42;99234.19;;;2.61;100.00
18509;BME280;9383;50.928;12.116;2023-12-07T11:29:14;99206.25;;;2.49;100.00
18509;BME280;9383;50.928;12.116;2023-12-07T11:31:42;99252.56;;;2.80;100.00
18509;BME280;9383;50.928;12.116;2023-12-07T11:34:46;99262.16;;;2.84;100.00
18509;BME280;9383;50.928;12.116;2023-12-07T11:37:20;99249.06;;;2.81;100.00
18509;BME280;9383;50.928;12.116;2023-12-07T11:39:54;99229.84;;;2.73;100.00
18509;BME280;9383;50.928;12.116;2023-12-07T11:42:20;99175.72;;;2.44;100.00
18509;BME280;9383;50.928;12.116;2023-12-07T11:44:49;99180.97;;;2.55;100.00
18509;BME280;9383;50.928;12.116;2023-12-07T11:47:21;99147.78;;;2.39;100.00
18509;BME280;9383;50.928;12.116;2023-12-07T11:49:50;99200.19;;;2.71;100.00
18509;BME280;9383;50.928;12.116;2023-12-07T11:52:20;99207.19;;;2.86;100.00
18509;BME280;9383;50.928;12.116;2023-12-07T11:54:52;99220.28;;;2.97;100.00
18509;BME280;9383;50.928;12.116;2023-12-07T11:57:21;99241.22;;;3.14;100.00
18509;BME280;9383;50.928;12.116;2023-12-07T11:59:57;99234.25;;;3.13;100.00
18509;BME280;9383;50.928;12.116;2023-12-07T12:02:24;99238.59;;;3.21;100.00
18509;BME280;9383;50.928;12.116;2023-12-07T12:05:11;99221.13;;;3.02;100.00
18509;BME280;9383;50.928;12.116;2023-12-07T12:07:57;99241.25;;;3.18;100.00
18509;BME280;9383;50.928;12.116;2023-12-07T12:10:23;99146.09;;;2.74;100.00
18509;BME280;9383;50.928;12.116;2023-12-07T12:12:53;99183.59;;;2.90;100.00
18509;BME280;9383;50.928;12.116;2023-12-07T12:15:27;99194.97;;;2.97;100.00
18509;BME280;9383;50.928;12.116;2023-12-07T12:17:59;99239.47;;;3.22;98.68
18509;BME280;9383;50.928;12.116;2023-12-07T12:20:30;99237.72;;;3.27;99.86
18509;BME280;9383;50.928;12.116;2023-12-07T12:23:02;99162.66;;;2.84;100.00
18509;BME280;9383;50.928;12.116;2023-12-07T12:25:37;99154.81;;;2.89;99.66
18509;BME280;9383;50.928;12.116;2023-12-07T12:28:07;99195.81;;;3.13;97.69
18509;BME280;9383;50.928;12.116;2023-12-07T12:30:37;99233.38;;;3.31;97.34
18509;BME280;9383;50.928;12.116;2023-12-07T12:33:16;99105.94;;;2.57;97.73
18509;BME280;9383;50.928;12.116;2023-12-07T12:36:07;99159.16;;;2.96;98.19
18509;BME280;9383;50.928;12.116;2023-12-07T12:38:47;99228.97;;;3.34;98.67
18509;BME280;9383;50.928;12.116;2023-12-07T12:41:24;99222.00;;;3.35;98.39
18509;BME280;9383;50.928;12.116;2023-12-07T12:43:51;99174.00;;;3.05;97.62
18509;BME280;9383;50.928;12.116;2023-12-07T12:46:29;99215.88;;;3.41;98.49
18509;BME280;9383;50.928;12.116;2023-12-07T12:49:00;99149.56;;;2.98;97.78
18509;BME280;9383;50.928;12.116;2023-12-07T12:51:38;99149.56;;;2.90;97.85
18509;BME280;9383;50.928;12.116;2023-12-07T12:54:07;99221.13;;;3.39;98.09
18509;BME280;9383;50.928;12.116;2023-12-07T12:56:34;99203.69;;;3.16;97.86
18509;BME280;9383;50.928;12.116;2023-12-07T12:59:05;99212.41;;;3.23;97.79
18509;BME280;9383;50.928;12.116;2023-12-07T13:01:32;99231.63;;;3.30;97.56
18509;BME280;9383;50.928;12.116;2023-12-07T13:03:59;99183.59;;;3.09;97.48
18509;BME280;9383;50.928;12.116;2023-12-07T13:06:29;99194.97;;;3.08;98.05
18509;BME280;9383;50.928;12.116;2023-12-07T13:08:57;99216.75;;;3.26;97.88